sensor_id;sensor_type;location;lat;lon;timestamp;P1;durP1;ratioP1;P2;durP2;ratioP2
22429;SDS011;11382;48.086;11.632;2023-05-27T00:01:49;14.60;;;7.75;;
22429;SDS011;11382;48.086;11.632;2023-05-27T00:04:17;10.80;;;7.57;;
22429;SDS011;11382;48.086;11.632;2023-05-27T00:06:46;16.08;;;8.55;;
22429;SDS011;11382;48.086;11.632;2023-05-27T00:09:15;12.55;;;7.90;;
22429;SDS011;11382;48.086;11.632;2023-05-27T00:11:43;14.70;;;7.88;;
22429;SDS011;11382;48.086;11.632;2023-05-27T00:14:11;13.45;;;8.45;;
22429;SDS011;11382;48.086;11.632;2023-05-27T00:16:40;13.38;;;8.80;;
22429;SDS011;11382;48.086;11.632;2023-05-27T00:19:08;12.63;;;8.60;;
22429;SDS011;11382;48.086;11.632;2023-05-27T00:21:36;14.73;;;8.98;;
22429;SDS011;11382;48.086;11.632;2023-05-27T00:24:04;16.92;;;8.52;;
22429;SDS011;11382;48.086;11.632;2023-05-27T00:26:32;14.88;;;8.38;;
22429;SDS011;11382;48.086;11.632;2023-05-27T00:29:00;17.92;;;8.68;;
22429;SDS011;11382;48.086;11.632;2023-05-27T00:31:28;13.75;;;8.80;;
22429;SDS011;11382;48.086;11.632;2023-05-27T00:33:58;13.15;;;8.38;;
22429;SDS011;11382;48.086;11.632;2023-05-27T00:36:26;12.10;;;8.35;;
22429;SDS011;11382;48.086;11.632;2023-05-27T00:38:54;13.25;;;8.25;;
22429;SDS011;11382;48.086;11.632;2023-05-27T00:41:22;17.38;;;8.82;;
22429;SDS011;11382;48.086;11.632;2023-05-27T00:43:50;15.18;;;8.65;;
22429;SDS011;11382;48.086;11.632;2023-05-27T00:46:18;13.55;;;8.57;;
22429;SDS011;11382;48.086;11.632;2023-05-27T00:48:47;13.82;;;8.35;;
22429;SDS011;11382;48.086;11.632;2023-05-27T00:51:16;14.23;;;9.02;;
22429;SDS011;11382;48.086;11.632;2023-05-27T00:53:45;14.13;;;8.77;;
22429;SDS011;11382;48.086;11.632;2023-05-27T00:56:13;15.27;;;9.07;;
22429;SDS011;11382;48.086;11.632;2023-05-27T00:58:42;14.13;;;8.80;;
22429;SDS011;11382;48.086;11.632;2023-05-27T01:01:10;14.82;;;8.75;;
22429;SDS011;11382;48.086;11.632;2023-05-27T01:03:38;13.48;;;8.75;;
22429;SDS011;11382;48.086;11.632;2023-05-27T01:06:11;16.23;;;9.27;;
22429;SDS011;11382;48.086;11.632;2023-05-27T01:08:52;12.95;;;9.15;;
22429;SDS011;11382;48.086;11.632;2023-05-27T01:11:28;14.65;;;10.38;;
22429;SDS011;11382;48.086;11.632;2023-05-27T01:14:03;13.55;;;9.55;;
22429;SDS011;11382;48.086;11.632;2023-05-27T01:16:35;14.40;;;9.85;;
22429;SDS011;11382;48.086;11.632;2023-05-27T01:19:07;16.25;;;9.75;;
22429;SDS011;11382;48.086;11.632;2023-05-27T01:21:37;15.07;;;10.02;;
22429;SDS011;11382;48.086;11.632;2023-05-27T01:24:12;15.43;;;9.40;;
22429;SDS011;11382;48.086;11.632;2023-05-27T01:26:40;20.48;;;9.93;;
22429;SDS011;11382;48.086;11.632;2023-05-27T01:29:09;13.02;;;9.20;;
22429;SDS011;11382;48.086;11.632;2023-05-27T01:31:40;15.50;;;9.38;;
22429;SDS011;11382;48.086;11.632;2023-05-27T01:34:13;15.48;;;9.57;;
22429;SDS011;11382;48.086;11.632;2023-05-27T01:36:47;13.02;;;9.07;;
22429;SDS011;11382;48.086;11.632;2023-05-27T01:39:22;17.55;;;10.52;;
22429;SDS011;11382;48.086;11.632;2023-05-27T01:41:51;13.43;;;9.20;;
22429;SDS011;11382;48.086;11.632;2023-05-27T01:44:20;15.55;;;9.07;;
22429;SDS011;11382;48.086;11.632;2023-05-27T01:46:49;15.10;;;9.82;;
22429;SDS011;11382;48.086;11.632;2023-05-27T01:49:17;14.15;;;9.68;;
22429;SDS011;11382;48.086;11.632;2023-05-27T01:51:45;14.30;;;9.65;;
22429;SDS011;11382;48.086;11.632;2023-05-27T01:54:13;17.50;;;10.05;;
22429;SDS011;11382;48.086;11.632;2023-05-27T01:56:43;18.10;;;9.77;;
22429;SDS011;11382;48.086;11.632;2023-05-27T01:59:12;17.27;;;10.20;;
22429;SDS011;11382;48.086;11.632;2023-05-27T02:01:41;15.88;;;9.60;;
22429;SDS011;11382;48.086;11.632;2023-05-27T02:04:09;16.90;;;9.60;;
22429;SDS011;11382;48.086;11.632;2023-05-27T02:06:37;16.00;;;9.35;;
22429;SDS011;11382;48.086;11.632;2023-05-27T02:09:05;14.88;;;9.30;;
22429;SDS011;11382;48.086;11.632;2023-05-27T02:11:33;13.90;;;9.07;;
22429;SDS011;11382;48.086;11.632;2023-05-27T02:14:03;15.40;;;9.60;;
22429;SDS011;11382;48.086;11.632;2023-05-27T02:16:31;15.98;;;10.15;;
22429;SDS011;11382;48.086;11.632;2023-05-27T02:19:00;14.65;;;9.82;;
22429;SDS011;11382;48.086;11.632;2023-05-27T02:21:28;18.10;;;10.10;;
22429;SDS011;11382;48.086;11.632;2023-05-27T02:23:56;16.75;;;10.13;;
22429;SDS011;11382;48.086;11.632;2023-05-27T02:26:24;17.75;;;9.65;;
22429;SDS011;11382;48.086;11.632;2023-05-27T02:28:52;14.93;;;9.40;;
22429;SDS011;11382;48.086;11.632;2023-05-27T02:31:22;19.13;;;9.57;;
22429;SDS011;11382;48.086;11.632;2023-05-27T02:33:50;16.48;;;10.27;;
22429;SDS011;11382;48.086;11.632;2023-05-27T02:36:18;14.73;;;10.13;;
22429;SDS011;11382;48.086;11.632;2023-05-27T02:38:47;23.90;;;10.32;;
22429;SDS011;11382;48.086;11.632;2023-05-27T02:41:15;14.18;;;9.55;;
22429;SDS011;11382;48.086;11.632;2023-05-27T02:43:43;16.13;;;9.75;;
22429;SDS011;11382;48.086;11.632;2023-05-27T02:46:11;19.45;;;10.50;;
22429;SDS011;11382;48.086;11.632;2023-05-27T02:48:40;15.02;;;10.23;;
22429;SDS011;11382;48.086;11.632;2023-05-27T02:51:08;17.15;;;9.80;;
22429;SDS011;11382;48.086;11.632;2023-05-27T02:53:36;17.02;;;9.85;;
22429;SDS011;11382;48.086;11.632;2023-05-27T02:56:05;17.33;;;10.57;;
22429;SDS011;11382;48.086;11.632;2023-05-27T02:58:33;17.25;;;10.70;;
22429;SDS011;11382;48.086;11.632;2023-05-27T03:01:01;18.55;;;10.45;;
22429;SDS011;11382;48.086;11.632;2023-05-27T03:03:29;18.95;;;10.25;;
22429;SDS011;11382;48.086;11.632;2023-05-27T03:05:59;14.45;;;10.10;;
22429;SDS011;11382;48.086;11.632;2023-05-27T03:08:27;16.15;;;10.48;;
22429;SDS011;11382;48.086;11.632;2023-05-27T03:10:55;15.90;;;10.32;;
22429;SDS011;11382;48.086;11.632;2023-05-27T03:13:23;19.42;;;10.70;;
22429;SDS011;11382;48.086;11.632;2023-05-27T03:15:51;16.55;;;10.70;;
22429;SDS011;11382;48.086;11.632;2023-05-27T03:18:21;14.93;;;9.88;;
22429;SDS011;11382;48.086;11.632;2023-05-27T03:20:49;19.58;;;10.90;;
22429;SDS011;11382;48.086;11.632;2023-05-27T03:23:19;17.23;;;10.77;;
22429;SDS011;11382;48.086;11.632;2023-05-27T03:25:50;18.95;;;11.40;;
22429;SDS011;11382;48.086;11.632;2023-05-27T03:28:18;15.80;;;10.00;;
22429;SDS011;11382;48.086;11.632;2023-05-27T03:30:47;16.35;;;10.55;;
22429;SDS011;11382;48.086;11.632;2023-05-27T03:33:28;16.65;;;9.90;;
22429;SDS011;11382;48.086;11.632;2023-05-27T03:35:56;15.35;;;9.57;;
22429;SDS011;11382;48.086;11.632;2023-05-27T03:38:25;15.40;;;9.95;;
22429;SDS011;11382;48.086;11.632;2023-05-27T03:40:54;16.98;;;10.25;;
22429;SDS011;11382;48.086;11.632;2023-05-27T03:43:22;21.98;;;10.73;;
22429;SDS011;11382;48.086;11.632;2023-05-27T03:45:51;16.48;;;10.48;;
22429;SDS011;11382;48.086;11.632;2023-05-27T03:48:20;16.73;;;10.63;;
22429;SDS011;11382;48.086;11.632;2023-05-27T03:50:48;15.13;;;10.18;;
22429;SDS011;11382;48.086;11.632;2023-05-27T03:53:16;15.50;;;10.07;;
22429;SDS011;11382;48.086;11.632;2023-05-27T03:55:45;17.30;;;10.75;;
22429;SDS011;11382;48.086;11.632;2023-05-27T03:58:13;17.55;;;11.20;;
22429;SDS011;11382;48.086;11.632;2023-05-27T04:00:42;18.65;;;10.38;;
22429;SDS011;11382;48.086;11.632;2023-05-27T04:03:10;14.38;;;10.02;;
22429;SDS011;11382;48.086;11.632;2023-05-27T04:05:39;16.20;;;10.10;;
22429;SDS011;11382;48.086;11.632;2023-05-27T04:08:07;17.40;;;10.15;;
22429;SDS011;11382;48.086;11.632;2023-05-27T04:10:34;15.95;;;10.27;;
22429;SDS011;11382;48.086;11.632;2023-05-27T04:13:04;18.58;;;10.55;;
22429;SDS011;11382;48.086;11.632;2023-05-27T04:15:32;18.52;;;10.95;;
22429;SDS011;11382;48.086;11.632;2023-05-27T04:18:01;18.10;;;10.07;;
22429;SDS011;11382;48.086;11.632;2023-05-27T04:20:34;15.73;;;10.07;;
22429;SDS011;11382;48.086;11.632;2023-05-27T04:23:03;15.13;;;9.95;;
22429;SDS011;11382;48.086;11.632;2023-05-27T04:25:31;20.33;;;9.73;;
22429;SDS011;11382;48.086;11.632;2023-05-27T04:28:05;16.75;;;9.93;;
22429;SDS011;11382;48.086;11.632;2023-05-27T04:30:39;14.30;;;9.77;;
22429;SDS011;11382;48.086;11.632;2023-05-27T04:33:15;17.58;;;9.70;;
22429;SDS011;11382;48.086;11.632;2023-05-27T04:35:44;13.95;;;9.25;;
22429;SDS011;11382;48.086;11.632;2023-05-27T04:38:14;17.48;;;9.27;;
22429;SDS011;11382;48.086;11.632;2023-05-27T04:40:57;14.48;;;8.68;;
22429;SDS011;11382;48.086;11.632;2023-05-27T04:43:48;12.60;;;9.02;;
22429;SDS011;11382;48.086;11.632;2023-05-27T04:46:21;15.52;;;8.82;;
22429;SDS011;11382;48.086;11.632;2023-05-27T04:48:50;11.38;;;8.77;;
22429;SDS011;11382;48.086;11.632;2023-05-27T04:51:18;10.68;;;7.68;;
22429;SDS011;11382;48.086;11.632;2023-05-27T04:53:47;15.75;;;8.48;;
22429;SDS011;11382;48.086;11.632;2023-05-27T04:56:18;13.18;;;8.40;;
22429;SDS011;11382;48.086;11.632;2023-05-27T04:58:46;11.63;;;7.68;;
22429;SDS011;11382;48.086;11.632;2023-05-27T05:01:19;13.05;;;8.13;;
22429;SDS011;11382;48.086;11.632;2023-05-27T05:03:57;13.27;;;7.65;;
22429;SDS011;11382;48.086;11.632;2023-05-27T05:06:43;14.73;;;8.20;;
22429;SDS011;11382;48.086;11.632;2023-05-27T05:09:12;11.50;;;7.78;;
22429;SDS011;11382;48.086;11.632;2023-05-27T05:11:40;9.70;;;6.95;;
22429;SDS011;11382;48.086;11.632;2023-05-27T05:14:08;11.70;;;7.55;;
22429;SDS011;11382;48.086;11.632;2023-05-27T05:16:37;14.48;;;7.28;;
22429;SDS011;11382;48.086;11.632;2023-05-27T05:19:07;10.02;;;7.05;;
22429;SDS011;11382;48.086;11.632;2023-05-27T05:21:37;14.65;;;7.20;;
22429;SDS011;11382;48.086;11.632;2023-05-27T05:24:08;11.23;;;7.03;;
22429;SDS011;11382;48.086;11.632;2023-05-27T05:26:39;14.93;;;6.90;;
22429;SDS011;11382;48.086;11.632;2023-05-27T05:29:08;9.77;;;6.97;;
22429;SDS011;11382;48.086;11.632;2023-05-27T05:31:38;10.25;;;6.78;;
22429;SDS011;11382;48.086;11.632;2023-05-27T05:34:07;11.73;;;6.93;;
22429;SDS011;11382;48.086;11.632;2023-05-27T05:36:36;9.65;;;6.35;;
22429;SDS011;11382;48.086;11.632;2023-05-27T05:39:08;10.27;;;6.43;;
22429;SDS011;11382;48.086;11.632;2023-05-27T05:41:41;9.00;;;6.45;;
22429;SDS011;11382;48.086;11.632;2023-05-27T05:44:09;13.25;;;7.15;;
22429;SDS011;11382;48.086;11.632;2023-05-27T05:46:39;8.75;;;6.53;;
22429;SDS011;11382;48.086;11.632;2023-05-27T05:49:08;8.73;;;6.60;;
22429;SDS011;11382;48.086;11.632;2023-05-27T05:51:41;10.48;;;6.57;;
22429;SDS011;11382;48.086;11.632;2023-05-27T05:54:09;10.30;;;6.13;;
22429;SDS011;11382;48.086;11.632;2023-05-27T05:56:42;10.07;;;6.22;;
22429;SDS011;11382;48.086;11.632;2023-05-27T05:59:11;11.88;;;6.75;;
22429;SDS011;11382;48.086;11.632;2023-05-27T06:01:40;8.38;;;5.97;;
22429;SDS011;11382;48.086;11.632;2023-05-27T06:04:08;10.38;;;6.10;;
22429;SDS011;11382;48.086;11.632;2023-05-27T06:06:39;10.23;;;6.38;;
22429;SDS011;11382;48.086;11.632;2023-05-27T06:09:26;10.60;;;5.57;;
22429;SDS011;11382;48.086;11.632;2023-05-27T06:11:58;10.32;;;6.15;;
22429;SDS011;11382;48.086;11.632;2023-05-27T06:14:30;7.53;;;5.95;;
22429;SDS011;11382;48.086;11.632;2023-05-27T06:17:00;9.02;;;6.43;;
22429;SDS011;11382;48.086;11.632;2023-05-27T06:19:28;9.05;;;6.05;;
22429;SDS011;11382;48.086;11.632;2023-05-27T06:21:57;10.57;;;5.93;;
22429;SDS011;11382;48.086;11.632;2023-05-27T06:24:49;9.35;;;5.75;;
22429;SDS011;11382;48.086;11.632;2023-05-27T06:27:28;9.43;;;5.93;;
22429;SDS011;11382;48.086;11.632;2023-05-27T06:29:56;9.55;;;5.60;;
22429;SDS011;11382;48.086;11.632;2023-05-27T06:32:34;9.55;;;5.88;;
22429;SDS011;11382;48.086;11.632;2023-05-27T06:35:02;8.40;;;4.72;;
22429;SDS011;11382;48.086;11.632;2023-05-27T06:37:31;7.25;;;4.90;;
22429;SDS011;11382;48.086;11.632;2023-05-27T06:39:59;12.00;;;4.82;;
22429;SDS011;11382;48.086;11.632;2023-05-27T06:42:27;9.00;;;5.10;;
22429;SDS011;11382;48.086;11.632;2023-05-27T06:47:40;6.57;;;4.63;;
22429;SDS011;11382;48.086;11.632;2023-05-27T06:50:09;8.00;;;4.38;;
22429;SDS011;11382;48.086;11.632;2023-05-27T06:52:37;12.77;;;5.07;;
22429;SDS011;11382;48.086;11.632;2023-05-27T06:55:11;6.78;;;4.35;;
22429;SDS011;11382;48.086;11.632;2023-05-27T06:58:12;9.45;;;4.50;;
22429;SDS011;11382;48.086;11.632;2023-05-27T07:00:51;9.75;;;4.45;;
22429;SDS011;11382;48.086;11.632;2023-05-27T07:03:28;11.52;;;5.05;;
22429;SDS011;11382;48.086;11.632;2023-05-27T07:05:57;8.95;;;4.47;;
22429;SDS011;11382;48.086;11.632;2023-05-27T07:08:28;8.05;;;4.85;;
22429;SDS011;11382;48.086;11.632;2023-05-27T07:11:13;8.02;;;4.82;;
22429;SDS011;11382;48.086;11.632;2023-05-27T07:13:42;9.02;;;4.43;;
22429;SDS011;11382;48.086;11.632;2023-05-27T07:16:12;6.75;;;4.18;;
22429;SDS011;11382;48.086;11.632;2023-05-27T07:18:41;11.73;;;4.82;;
22429;SDS011;11382;48.086;11.632;2023-05-27T07:21:11;8.27;;;4.60;;
22429;SDS011;11382;48.086;11.632;2023-05-27T07:23:39;6.43;;;4.38;;
22429;SDS011;11382;48.086;11.632;2023-05-27T07:26:33;8.02;;;4.20;;
22429;SDS011;11382;48.086;11.632;2023-05-27T07:29:01;7.88;;;3.83;;
22429;SDS011;11382;48.086;11.632;2023-05-27T07:31:59;10.93;;;4.80;;
22429;SDS011;11382;48.086;11.632;2023-05-27T07:34:33;9.27;;;4.38;;
22429;SDS011;11382;48.086;11.632;2023-05-27T07:37:01;10.10;;;4.57;;
22429;SDS011;11382;48.086;11.632;2023-05-27T07:39:29;7.88;;;4.50;;
22429;SDS011;11382;48.086;11.632;2023-05-27T07:41:57;6.78;;;4.25;;
22429;SDS011;11382;48.086;11.632;2023-05-27T07:44:28;5.90;;;4.10;;
22429;SDS011;11382;48.086;11.632;2023-05-27T07:46:57;8.95;;;4.75;;
22429;SDS011;11382;48.086;11.632;2023-05-27T07:52:35;8.75;;;4.68;;
22429;SDS011;11382;48.086;11.632;2023-05-27T07:55:16;11.25;;;4.40;;
22429;SDS011;11382;48.086;11.632;2023-05-27T07:57:44;7.93;;;4.78;;
22429;SDS011;11382;48.086;11.632;2023-05-27T08:00:13;8.77;;;4.78;;
22429;SDS011;11382;48.086;11.632;2023-05-27T08:02:53;8.45;;;4.38;;
22429;SDS011;11382;48.086;11.632;2023-05-27T08:05:36;11.65;;;5.15;;
22429;SDS011;11382;48.086;11.632;2023-05-27T08:08:17;8.25;;;4.88;;
22429;SDS011;11382;48.086;11.632;2023-05-27T08:11:04;12.20;;;4.97;;
22429;SDS011;11382;48.086;11.632;2023-05-27T08:13:45;9.13;;;4.63;;
22429;SDS011;11382;48.086;11.632;2023-05-27T08:16:24;8.25;;;4.80;;
22429;SDS011;11382;48.086;11.632;2023-05-27T08:19:03;7.80;;;4.43;;
22429;SDS011;11382;48.086;11.632;2023-05-27T08:21:50;12.70;;;5.45;;
22429;SDS011;11382;48.086;11.632;2023-05-27T08:24:38;7.85;;;4.53;;
22429;SDS011;11382;48.086;11.632;2023-05-27T08:27:19;9.40;;;4.78;;
22429;SDS011;11382;48.086;11.632;2023-05-27T08:30:01;10.15;;;5.10;;
22429;SDS011;11382;48.086;11.632;2023-05-27T08:32:50;14.90;;;5.78;;
22429;SDS011;11382;48.086;11.632;2023-05-27T08:35:18;8.75;;;5.20;;
22429;SDS011;11382;48.086;11.632;2023-05-27T08:37:48;9.52;;;4.80;;
22429;SDS011;11382;48.086;11.632;2023-05-27T08:40:17;9.32;;;4.63;;
22429;SDS011;11382;48.086;11.632;2023-05-27T08:42:49;10.63;;;4.82;;
22429;SDS011;11382;48.086;11.632;2023-05-27T08:45:18;8.60;;;4.80;;
22429;SDS011;11382;48.086;11.632;2023-05-27T08:47:46;8.85;;;4.72;;
22429;SDS011;11382;48.086;11.632;2023-05-27T08:50:22;7.47;;;5.13;;
22429;SDS011;11382;48.086;11.632;2023-05-27T08:52:52;9.48;;;5.30;;
22429;SDS011;11382;48.086;11.632;2023-05-27T08:55:23;6.95;;;4.75;;
22429;SDS011;11382;48.086;11.632;2023-05-27T08:57:54;11.27;;;5.45;;
22429;SDS011;11382;48.086;11.632;2023-05-27T09:00:25;9.02;;;5.10;;
22429;SDS011;11382;48.086;11.632;2023-05-27T09:02:58;11.05;;;5.30;;
22429;SDS011;11382;48.086;11.632;2023-05-27T09:05:30;9.23;;;5.30;;
22429;SDS011;11382;48.086;11.632;2023-05-27T09:08:00;9.73;;;5.00;;
22429;SDS011;11382;48.086;11.632;2023-05-27T09:10:34;8.95;;;5.28;;
22429;SDS011;11382;48.086;11.632;2023-05-27T09:13:03;9.32;;;5.45;;
22429;SDS011;11382;48.086;11.632;2023-05-27T09:15:32;10.25;;;5.53;;
22429;SDS011;11382;48.086;11.632;2023-05-27T09:18:02;11.32;;;5.88;;
22429;SDS011;11382;48.086;11.632;2023-05-27T09:20:30;11.25;;;5.40;;
22429;SDS011;11382;48.086;11.632;2023-05-27T09:22:59;11.98;;;5.70;;
22429;SDS011;11382;48.086;11.632;2023-05-27T09:25:29;11.60;;;5.50;;
22429;SDS011;11382;48.086;11.632;2023-05-27T09:27:57;8.73;;;5.80;;
22429;SDS011;11382;48.086;11.632;2023-05-27T09:30:25;9.57;;;5.60;;
22429;SDS011;11382;48.086;11.632;2023-05-27T09:33:00;10.20;;;5.53;;
22429;SDS011;11382;48.086;11.632;2023-05-27T09:35:29;14.05;;;5.97;;
22429;SDS011;11382;48.086;11.632;2023-05-27T09:38:06;11.98;;;5.95;;
22429;SDS011;11382;48.086;11.632;2023-05-27T09:40:35;10.75;;;6.03;;
22429;SDS011;11382;48.086;11.632;2023-05-27T09:43:04;10.65;;;6.13;;
22429;SDS011;11382;48.086;11.632;2023-05-27T09:45:33;12.18;;;6.50;;
22429;SDS011;11382;48.086;11.632;2023-05-27T09:48:01;8.38;;;5.13;;
22429;SDS011;11382;48.086;11.632;2023-05-27T09:50:30;8.07;;;5.47;;
22429;SDS011;11382;48.086;11.632;2023-05-27T09:52:59;7.45;;;5.65;;
22429;SDS011;11382;48.086;11.632;2023-05-27T09:55:37;13.07;;;5.65;;
22429;SDS011;11382;48.086;11.632;2023-05-27T09:58:07;8.77;;;5.60;;
22429;SDS011;11382;48.086;11.632;2023-05-27T10:00:36;10.07;;;5.78;;
22429;SDS011;11382;48.086;11.632;2023-05-27T10:03:06;12.82;;;6.45;;
22429;SDS011;11382;48.086;11.632;2023-05-27T10:05:36;9.73;;;5.25;;
22429;SDS011;11382;48.086;11.632;2023-05-27T10:08:05;11.23;;;5.35;;
22429;SDS011;11382;48.086;11.632;2023-05-27T10:10:51;10.48;;;5.15;;
22429;SDS011;11382;48.086;11.632;2023-05-27T10:13:21;12.15;;;5.53;;
22429;SDS011;11382;48.086;11.632;2023-05-27T10:15:51;9.23;;;4.90;;
22429;SDS011;11382;48.086;11.632;2023-05-27T10:18:23;8.43;;;5.75;;
22429;SDS011;11382;48.086;11.632;2023-05-27T10:20:53;11.35;;;5.72;;
22429;SDS011;11382;48.086;11.632;2023-05-27T10:23:24;10.27;;;5.28;;
22429;SDS011;11382;48.086;11.632;2023-05-27T10:25:54;8.00;;;5.20;;
22429;SDS011;11382;48.086;11.632;2023-05-27T10:28:27;9.18;;;5.45;;
22429;SDS011;11382;48.086;11.632;2023-05-27T10:31:04;8.30;;;5.15;;
22429;SDS011;11382;48.086;11.632;2023-05-27T10:33:36;9.13;;;5.57;;
22429;SDS011;11382;48.086;11.632;2023-05-27T10:36:06;11.50;;;5.72;;
22429;SDS011;11382;48.086;11.632;2023-05-27T10:38:36;8.65;;;5.72;;
22429;SDS011;11382;48.086;11.632;2023-05-27T10:41:06;12.68;;;5.53;;
22429;SDS011;11382;48.086;11.632;2023-05-27T10:43:34;7.65;;;5.63;;
22429;SDS011;11382;48.086;11.632;2023-05-27T10:46:04;10.00;;;5.50;;
22429;SDS011;11382;48.086;11.632;2023-05-27T10:48:35;8.32;;;5.68;;
22429;SDS011;11382;48.086;11.632;2023-05-27T10:51:06;8.85;;;5.20;;
22429;SDS011;11382;48.086;11.632;2023-05-27T10:53:34;12.23;;;5.30;;
22429;SDS011;11382;48.086;11.632;2023-05-27T10:56:03;10.38;;;6.07;;
22429;SDS011;11382;48.086;11.632;2023-05-27T10:58:34;11.82;;;5.78;;
22429;SDS011;11382;48.086;11.632;2023-05-27T11:01:07;12.00;;;5.65;;
22429;SDS011;11382;48.086;11.632;2023-05-27T11:03:41;9.50;;;5.78;;
22429;SDS011;11382;48.086;11.632;2023-05-27T11:06:12;8.57;;;5.43;;
22429;SDS011;11382;48.086;11.632;2023-05-27T11:08:41;9.35;;;5.50;;
22429;SDS011;11382;48.086;11.632;2023-05-27T11:11:10;8.73;;;5.40;;
22429;SDS011;11382;48.086;11.632;2023-05-27T11:13:41;8.40;;;5.82;;
22429;SDS011;11382;48.086;11.632;2023-05-27T11:16:13;7.80;;;5.68;;
22429;SDS011;11382;48.086;11.632;2023-05-27T11:18:43;12.48;;;5.15;;
22429;SDS011;11382;48.086;11.632;2023-05-27T11:21:14;8.35;;;5.22;;
22429;SDS011;11382;48.086;11.632;2023-05-27T11:23:44;8.70;;;5.20;;
22429;SDS011;11382;48.086;11.632;2023-05-27T11:26:13;6.80;;;4.50;;
22429;SDS011;11382;48.086;11.632;2023-05-27T11:28:47;8.73;;;5.03;;
22429;SDS011;11382;48.086;11.632;2023-05-27T11:31:16;7.45;;;5.00;;
22429;SDS011;11382;48.086;11.632;2023-05-27T11:33:46;8.70;;;4.95;;
22429;SDS011;11382;48.086;11.632;2023-05-27T11:36:17;8.85;;;5.22;;
22429;SDS011;11382;48.086;11.632;2023-05-27T11:38:50;10.80;;;5.82;;
22429;SDS011;11382;48.086;11.632;2023-05-27T11:41:20;9.80;;;5.53;;
22429;SDS011;11382;48.086;11.632;2023-05-27T11:43:51;6.93;;;4.75;;
22429;SDS011;11382;48.086;11.632;2023-05-27T11:46:22;8.70;;;5.10;;
22429;SDS011;11382;48.086;11.632;2023-05-27T11:48:50;8.52;;;4.95;;
22429;SDS011;11382;48.086;11.632;2023-05-27T11:51:25;9.55;;;5.53;;
22429;SDS011;11382;48.086;11.632;2023-05-27T11:53:55;7.85;;;4.72;;
22429;SDS011;11382;48.086;11.632;2023-05-27T11:56:25;11.40;;;4.85;;
22429;SDS011;11382;48.086;11.632;2023-05-27T11:58:56;9.60;;;4.90;;
22429;SDS011;11382;48.086;11.632;2023-05-27T12:01:24;11.52;;;5.07;;
22429;SDS011;11382;48.086;11.632;2023-05-27T12:03:53;8.50;;;4.85;;
22429;SDS011;11382;48.086;11.632;2023-05-27T12:06:21;10.32;;;4.57;;
22429;SDS011;11382;48.086;11.632;2023-05-27T12:08:49;7.30;;;4.60;;
22429;SDS011;11382;48.086;11.632;2023-05-27T12:11:17;10.52;;;5.38;;
22429;SDS011;11382;48.086;11.632;2023-05-27T12:13:45;8.07;;;4.25;;
22429;SDS011;11382;48.086;11.632;2023-05-27T12:16:14;11.50;;;5.13;;
22429;SDS011;11382;48.086;11.632;2023-05-27T12:18:42;8.15;;;4.80;;
22429;SDS011;11382;48.086;11.632;2023-05-27T12:21:11;9.85;;;5.00;;
22429;SDS011;11382;48.086;11.632;2023-05-27T12:23:40;9.60;;;5.22;;
22429;SDS011;11382;48.086;11.632;2023-05-27T12:26:08;7.88;;;4.32;;
22429;SDS011;11382;48.086;11.632;2023-05-27T12:28:36;7.43;;;4.40;;
22429;SDS011;11382;48.086;11.632;2023-05-27T12:31:04;9.98;;;4.55;;
22429;SDS011;11382;48.086;11.632;2023-05-27T12:33:34;14.23;;;4.60;;
22429;SDS011;11382;48.086;11.632;2023-05-27T12:36:02;8.57;;;4.68;;
22429;SDS011;11382;48.086;11.632;2023-05-27T12:38:31;7.00;;;4.10;;
22429;SDS011;11382;48.086;11.632;2023-05-27T12:40:59;6.53;;;4.18;;
22429;SDS011;11382;48.086;11.632;2023-05-27T12:43:28;6.97;;;4.38;;
22429;SDS011;11382;48.086;11.632;2023-05-27T12:45:56;7.60;;;4.35;;
22429;SDS011;11382;48.086;11.632;2023-05-27T12:48:25;12.93;;;4.50;;
22429;SDS011;11382;48.086;11.632;2023-05-27T12:50:54;7.47;;;4.25;;
22429;SDS011;11382;48.086;11.632;2023-05-27T12:53:22;10.20;;;5.22;;
22429;SDS011;11382;48.086;11.632;2023-05-27T12:55:50;10.20;;;4.57;;
22429;SDS011;11382;48.086;11.632;2023-05-27T12:58:18;9.60;;;4.50;;
22429;SDS011;11382;48.086;11.632;2023-05-27T13:00:46;8.30;;;4.43;;
22429;SDS011;11382;48.086;11.632;2023-05-27T13:03:14;9.93;;;4.25;;
22429;SDS011;11382;48.086;11.632;2023-05-27T13:05:43;9.60;;;4.15;;
22429;SDS011;11382;48.086;11.632;2023-05-27T13:08:12;9.23;;;4.32;;
22429;SDS011;11382;48.086;11.632;2023-05-27T13:10:40;9.95;;;4.82;;
22429;SDS011;11382;48.086;11.632;2023-05-27T13:13:08;11.82;;;4.55;;
22429;SDS011;11382;48.086;11.632;2023-05-27T13:15:36;9.43;;;3.97;;
22429;SDS011;11382;48.086;11.632;2023-05-27T13:18:04;8.60;;;4.30;;
22429;SDS011;11382;48.086;11.632;2023-05-27T13:20:33;7.05;;;4.15;;
22429;SDS011;11382;48.086;11.632;2023-05-27T13:23:01;7.78;;;4.40;;
22429;SDS011;11382;48.086;11.632;2023-05-27T13:25:30;8.68;;;4.68;;
22429;SDS011;11382;48.086;11.632;2023-05-27T13:27:59;8.48;;;4.38;;
22429;SDS011;11382;48.086;11.632;2023-05-27T13:30:27;9.70;;;4.32;;
22429;SDS011;11382;48.086;11.632;2023-05-27T13:32:55;8.23;;;4.30;;
22429;SDS011;11382;48.086;11.632;2023-05-27T13:35:23;9.35;;;4.63;;
22429;SDS011;11382;48.086;11.632;2023-05-27T13:37:51;8.13;;;4.05;;
22429;SDS011;11382;48.086;11.632;2023-05-27T13:40:20;6.78;;;4.07;;
22429;SDS011;11382;48.086;11.632;2023-05-27T13:42:50;8.02;;;4.20;;
22429;SDS011;11382;48.086;11.632;2023-05-27T13:45:19;10.27;;;3.90;;
22429;SDS011;11382;48.086;11.632;2023-05-27T13:47:47;8.10;;;4.07;;
22429;SDS011;11382;48.086;11.632;2023-05-27T13:50:17;9.13;;;4.57;;
22429;SDS011;11382;48.086;11.632;2023-05-27T13:52:45;9.52;;;4.47;;
22429;SDS011;11382;48.086;11.632;2023-05-27T13:55:13;7.88;;;4.05;;
22429;SDS011;11382;48.086;11.632;2023-05-27T13:57:41;10.38;;;4.40;;
22429;SDS011;11382;48.086;11.632;2023-05-27T14:00:11;9.35;;;4.45;;
22429;SDS011;11382;48.086;11.632;2023-05-27T14:02:42;7.18;;;3.60;;
22429;SDS011;11382;48.086;11.632;2023-05-27T14:05:10;7.97;;;3.80;;
22429;SDS011;11382;48.086;11.632;2023-05-27T14:07:39;8.57;;;3.65;;
22429;SDS011;11382;48.086;11.632;2023-05-27T14:10:09;8.27;;;4.07;;
22429;SDS011;11382;48.086;11.632;2023-05-27T14:12:37;7.55;;;3.75;;
22429;SDS011;11382;48.086;11.632;2023-05-27T14:15:06;5.80;;;3.75;;
22429;SDS011;11382;48.086;11.632;2023-05-27T14:17:37;10.80;;;4.07;;
22429;SDS011;11382;48.086;11.632;2023-05-27T14:20:05;7.68;;;4.38;;
22429;SDS011;11382;48.086;11.632;2023-05-27T14:22:37;11.80;;;4.45;;
22429;SDS011;11382;48.086;11.632;2023-05-27T14:25:05;10.77;;;4.20;;
22429;SDS011;11382;48.086;11.632;2023-05-27T14:27:34;7.97;;;4.28;;
22429;SDS011;11382;48.086;11.632;2023-05-27T14:30:02;8.63;;;4.30;;
22429;SDS011;11382;48.086;11.632;2023-05-27T14:32:30;7.00;;;3.72;;
22429;SDS011;11382;48.086;11.632;2023-05-27T14:34:59;8.38;;;3.72;;
22429;SDS011;11382;48.086;11.632;2023-05-27T14:37:27;6.63;;;3.60;;
22429;SDS011;11382;48.086;11.632;2023-05-27T14:39:55;10.63;;;4.10;;
22429;SDS011;11382;48.086;11.632;2023-05-27T14:42:23;9.35;;;3.67;;
22429;SDS011;11382;48.086;11.632;2023-05-27T14:44:51;8.82;;;3.83;;
22429;SDS011;11382;48.086;11.632;2023-05-27T14:47:19;16.15;;;4.47;;
22429;SDS011;11382;48.086;11.632;2023-05-27T14:49:48;10.55;;;4.32;;
22429;SDS011;11382;48.086;11.632;2023-05-27T14:52:17;9.73;;;3.92;;